Lansing, Illinois
Current Conditions -  °F | °C
As of 10:15 PM on Thursday 27 Nov 2014 (Local Time) from KIGQ Reporting Station
Clear Clear  
Wind Chill: 19°   Ceiling: Unl
Heat Index: 19°   Visibility: 10mi
Dew Point: 11°   Wind: 3mph
Humidity: 69%   Direction: 320°NW
Pressure: 30.41"   Gusts: NA
Location:  41.56°N, 87.54°W
Report Text: KIGQ 280415Z AUTO 32003KT 10SM CLR M07/M12 A3041 RMK AO2 T10711119
Loading
Personal Weather Stations






























Interactive Weather Map New forecast layout! Learn more

10-Day Weather Forecast

Advertisements
Track Severe Weather on mobile